sensor_id;sensor_type;location;lat;lon;timestamp;pressure;altitude;pressure_sealevel;temperature;humidity
30463;BME280;17256;43.618;25.336;2023-08-31T00:00:34;99775.22;;;22.64;100.00
30463;BME280;17256;43.618;25.336;2023-08-31T00:03:01;99749.31;;;22.53;100.00
30463;BME280;17256;43.618;25.336;2023-08-31T00:05:27;99831.06;;;22.98;100.00
30463;BME280;17256;43.618;25.336;2023-08-31T00:07:54;99753.53;;;22.51;100.00
30463;BME280;17256;43.618;25.336;2023-08-31T00:10:20;99856.22;;;23.22;100.00
30463;BME280;17256;43.618;25.336;2023-08-31T00:12:45;99779.59;;;22.70;100.00
30463;BME280;17256;43.618;25.336;2023-08-31T00:15:11;99731.16;;;22.27;100.00
30463;BME280;17256;43.618;25.336;2023-08-31T00:17:37;99765.81;;;22.31;100.00
30463;BME280;17256;43.618;25.336;2023-08-31T00:20:04;99745.22;;;22.22;100.00
30463;BME280;17256;43.618;25.336;2023-08-31T00:22:31;99699.13;;;21.90;100.00
30463;BME280;17256;43.618;25.336;2023-08-31T00:24:57;99772.66;;;22.44;100.00
30463;BME280;17256;43.618;25.336;2023-08-31T00:27:23;99803.72;;;22.42;100.00
30463;BME280;17256;43.618;25.336;2023-08-31T00:29:48;99785.50;;;22.45;100.00
30463;BME280;17256;43.618;25.336;2023-08-31T00:32:17;99768.19;;;22.19;100.00
30463;BME280;17256;43.618;25.336;2023-08-31T00:34:44;99753.19;;;22.09;100.00
30463;BME280;17256;43.618;25.336;2023-08-31T00:37:10;99839.34;;;22.60;100.00
30463;BME280;17256;43.618;25.336;2023-08-31T00:39:35;99711.00;;;21.77;100.00
30463;BME280;17256;43.618;25.336;2023-08-31T00:42:01;99722.41;;;21.80;100.00
30463;BME280;17256;43.618;25.336;2023-08-31T00:44:26;99739.97;;;21.86;100.00
30463;BME280;17256;43.618;25.336;2023-08-31T00:46:52;99875.50;;;22.81;100.00
30463;BME280;17256;43.618;25.336;2023-08-31T00:49:18;99755.44;;;22.02;100.00
30463;BME280;17256;43.618;25.336;2023-08-31T00:51:45;99912.25;;;22.98;100.00
30463;BME280;17256;43.618;25.336;2023-08-31T00:54:19;99763.84;;;22.02;100.00
30463;BME280;17256;43.618;25.336;2023-08-31T00:56:46;99813.47;;;22.21;100.00
30463;BME280;17256;43.618;25.336;2023-08-31T00:59:17;99730.00;;;21.75;100.00
30463;BME280;17256;43.618;25.336;2023-08-31T01:02:00;99882.25;;;22.75;100.00
30463;BME280;17256;43.618;25.336;2023-08-31T01:13:04;99860.66;;;22.56;100.00
30463;BME280;17256;43.618;25.336;2023-08-31T01:15:38;99790.66;;;22.08;100.00
30463;BME280;17256;43.618;25.336;2023-08-31T01:18:09;99736.13;;;21.77;100.00
30463;BME280;17256;43.618;25.336;2023-08-31T01:21:06;99767.63;;;21.88;100.00
30463;BME280;17256;43.618;25.336;2023-08-31T01:23:55;99927.53;;;22.87;100.00
30463;BME280;17256;43.618;25.336;2023-08-31T01:26:23;99887.16;;;22.64;100.00
30463;BME280;17256;43.618;25.336;2023-08-31T01:28:50;99738.41;;;21.75;100.00
30463;BME280;17256;43.618;25.336;2023-08-31T01:31:17;99919.41;;;22.85;100.00
30463;BME280;17256;43.618;25.336;2023-08-31T01:37:00;99871.41;;;22.44;100.00
30463;BME280;17256;43.618;25.336;2023-08-31T01:39:47;99769.06;;;21.85;100.00
30463;BME280;17256;43.618;25.336;2023-08-31T01:42:16;99876.66;;;22.51;100.00
30463;BME280;17256;43.618;25.336;2023-08-31T01:44:43;99883.66;;;22.48;100.00
30463;BME280;17256;43.618;25.336;2023-08-31T01:47:11;99864.81;;;22.30;100.00
30463;BME280;17256;43.618;25.336;2023-08-31T01:49:40;99833.69;;;22.13;100.00
30463;BME280;17256;43.618;25.336;2023-08-31T01:52:07;99847.31;;;22.19;100.00
30463;BME280;17256;43.618;25.336;2023-08-31T01:54:33;99858.69;;;22.28;100.00
30463;BME280;17256;43.618;25.336;2023-08-31T01:56:59;99851.50;;;22.22;100.00
30463;BME280;17256;43.618;25.336;2023-08-31T01:59:25;99814.75;;;21.99;100.00
30463;BME280;17256;43.618;25.336;2023-08-31T02:01:52;99837.31;;;22.13;100.00
30463;BME280;17256;43.618;25.336;2023-08-31T02:04:17;99869.31;;;22.31;100.00
30463;BME280;17256;43.618;25.336;2023-08-31T02:13:04;99725.72;;;21.25;100.00
30463;BME280;17256;43.618;25.336;2023-08-31T02:15:38;99827.47;;;21.87;100.00
30463;BME280;17256;43.618;25.336;2023-08-31T02:18:04;99892.78;;;22.30;100.00
30463;BME280;17256;43.618;25.336;2023-08-31T02:20:29;99930.69;;;22.46;100.00
30463;BME280;17256;43.618;25.336;2023-08-31T02:22:56;99876.22;;;22.09;100.00
30463;BME280;17256;43.618;25.336;2023-08-31T02:25:23;99772.28;;;21.29;100.00
30463;BME280;17256;43.618;25.336;2023-08-31T02:27:49;99830.22;;;21.58;100.00
30463;BME280;17256;43.618;25.336;2023-08-31T02:30:14;99939.25;;;22.26;100.00
30463;BME280;17256;43.618;25.336;2023-08-31T02:32:40;99791.31;;;21.27;100.00
30463;BME280;17256;43.618;25.336;2023-08-31T02:35:07;99801.00;;;21.40;100.00
30463;BME280;17256;43.618;25.336;2023-08-31T02:37:33;99804.63;;;21.40;100.00
30463;BME280;17256;43.618;25.336;2023-08-31T02:39:59;99894.44;;;21.97;100.00
30463;BME280;17256;43.618;25.336;2023-08-31T02:46:19;99742.91;;;20.98;100.00
30463;BME280;17256;43.618;25.336;2023-08-31T02:48:46;99778.22;;;21.17;100.00
30463;BME280;17256;43.618;25.336;2023-08-31T02:51:14;99767.13;;;21.07;100.00
30463;BME280;17256;43.618;25.336;2023-08-31T02:53:40;99938.22;;;22.17;100.00
30463;BME280;17256;43.618;25.336;2023-08-31T02:56:06;99804.13;;;21.33;100.00
30463;BME280;17256;43.618;25.336;2023-08-31T02:58:33;99875.84;;;21.82;100.00
30463;BME280;17256;43.618;25.336;2023-08-31T03:01:13;99935.78;;;22.10;100.00
30463;BME280;17256;43.618;25.336;2023-08-31T03:03:44;99830.28;;;21.47;100.00
30463;BME280;17256;43.618;25.336;2023-08-31T03:06:12;99950.34;;;22.07;100.00
30463;BME280;17256;43.618;25.336;2023-08-31T03:08:38;99893.53;;;21.72;100.00
30463;BME280;17256;43.618;25.336;2023-08-31T03:11:05;99817.56;;;21.26;100.00
30463;BME280;17256;43.618;25.336;2023-08-31T03:13:38;99932.16;;;21.99;100.00
30463;BME280;17256;43.618;25.336;2023-08-31T03:16:04;99902.41;;;21.79;100.00
30463;BME280;17256;43.618;25.336;2023-08-31T03:18:30;99777.72;;;21.05;100.00
30463;BME280;17256;43.618;25.336;2023-08-31T03:20:57;99957.06;;;22.06;100.00
30463;BME280;17256;43.618;25.336;2023-08-31T03:23:24;99822.84;;;21.33;100.00
30463;BME280;17256;43.618;25.336;2023-08-31T03:25:51;99964.47;;;22.21;100.00
30463;BME280;17256;43.618;25.336;2023-08-31T03:31:02;99885.31;;;21.86;nan
30463;BME280;17256;43.618;25.336;2023-08-31T03:33:28;99975.63;;;22.26;nan
30463;BME280;17256;43.618;25.336;2023-08-31T03:36:00;99901.03;;;21.77;nan
30463;BME280;17256;43.618;25.336;2023-08-31T03:38:26;99808.91;;;21.28;nan
30463;BME280;17256;43.618;25.336;2023-08-31T03:40:55;99906.84;;;21.86;nan
30463;BME280;17256;43.618;25.336;2023-08-31T03:43:21;99932.72;;;22.06;nan
30463;BME280;17256;43.618;25.336;2023-08-31T03:45:47;99855.63;;;21.56;nan
30463;BME280;17256;43.618;25.336;2023-08-31T03:48:14;99984.06;;;22.21;nan
30463;BME280;17256;43.618;25.336;2023-08-31T03:54:20;99865.31;;;21.25;nan
30463;BME280;17256;43.618;25.336;2023-08-31T03:56:47;99994.50;;;22.05;nan
30463;BME280;17256;43.618;25.336;2023-08-31T03:59:14;99877.00;;;21.37;nan
30463;BME280;17256;43.618;25.336;2023-08-31T04:01:41;99950.19;;;21.83;nan
30463;BME280;17256;43.618;25.336;2023-08-31T04:04:12;99974.63;;;22.12;nan
30463;BME280;17256;43.618;25.336;2023-08-31T04:06:38;99848.53;;;21.35;nan
30463;BME280;17256;43.618;25.336;2023-08-31T04:09:06;99984.59;;;22.23;nan
30463;BME280;17256;43.618;25.336;2023-08-31T04:11:34;99971.69;;;22.27;nan
30463;BME280;17256;43.618;25.336;2023-08-31T04:13:59;99840.94;;;21.40;nan
30463;BME280;17256;43.618;25.336;2023-08-31T04:16:31;99977.47;;;22.06;nan
30463;BME280;17256;43.618;25.336;2023-08-31T04:18:57;99980.53;;;22.05;nan
30463;BME280;17256;43.618;25.336;2023-08-31T04:21:23;99985.56;;;22.08;nan
30463;BME280;17256;43.618;25.336;2023-08-31T04:24:20;99899.22;;;21.52;nan
30463;BME280;17256;43.618;25.336;2023-08-31T04:26:45;99873.94;;;21.33;nan
30463;BME280;17256;43.618;25.336;2023-08-31T04:29:13;99876.78;;;21.18;nan
30463;BME280;17256;43.618;25.336;2023-08-31T04:31:38;99888.47;;;21.35;nan
30463;BME280;17256;43.618;25.336;2023-08-31T04:34:05;99887.09;;;21.23;nan
30463;BME280;17256;43.618;25.336;2023-08-31T04:36:30;99862.53;;;21.19;nan
30463;BME280;17256;43.618;25.336;2023-08-31T04:38:56;99919.97;;;21.41;nan
30463;BME280;17256;43.618;25.336;2023-08-31T04:41:21;99913.50;;;21.50;nan
30463;BME280;17256;43.618;25.336;2023-08-31T04:43:47;99912.06;;;21.53;nan
30463;BME280;17256;43.618;25.336;2023-08-31T04:46:15;99914.59;;;21.55;nan
30463;BME280;17256;43.618;25.336;2023-08-31T04:48:41;99909.00;;;21.55;nan
30463;BME280;17256;43.618;25.336;2023-08-31T04:51:26;99927.47;;;21.50;nan
30463;BME280;17256;43.618;25.336;2023-08-31T04:54:13;100057.72;;;22.45;nan
30463;BME280;17256;43.618;25.336;2023-08-31T04:56:38;100057.06;;;22.58;nan
30463;BME280;17256;43.618;25.336;2023-08-31T04:59:07;100002.75;;;22.25;nan
30463;BME280;17256;43.618;25.336;2023-08-31T05:01:33;99983.22;;;22.20;nan
30463;BME280;17256;43.618;25.336;2023-08-31T05:03:58;99894.41;;;21.68;nan
30463;BME280;17256;43.618;25.336;2023-08-31T05:06:26;99904.91;;;21.81;nan
30463;BME280;17256;43.618;25.336;2023-08-31T05:08:52;99934.41;;;22.07;nan
30463;BME280;17256;43.618;25.336;2023-08-31T05:11:26;100052.13;;;22.84;nan
30463;BME280;17256;43.618;25.336;2023-08-31T05:17:46;99993.72;;;22.38;nan
30463;BME280;17256;43.618;25.336;2023-08-31T05:20:14;100068.28;;;22.92;nan
30463;BME280;17256;43.618;25.336;2023-08-31T05:22:41;100065.91;;;22.70;nan
30463;BME280;17256;43.618;25.336;2023-08-31T05:25:10;99915.63;;;21.69;nan
30463;BME280;17256;43.618;25.336;2023-08-31T05:27:36;100052.47;;;22.72;nan
30463;BME280;17256;43.618;25.336;2023-08-31T05:30:05;100069.28;;;23.07;nan
30463;BME280;17256;43.618;25.336;2023-08-31T05:32:32;99910.16;;;22.27;nan
30463;BME280;17256;43.618;25.336;2023-08-31T05:34:57;99914.44;;;22.48;nan
30463;BME280;17256;43.618;25.336;2023-08-31T05:37:25;99904.56;;;22.32;nan
30463;BME280;17256;43.618;25.336;2023-08-31T05:39:51;100020.94;;;22.96;nan
30463;BME280;17256;43.618;25.336;2023-08-31T05:42:17;100066.16;;;23.37;nan
30463;BME280;17256;43.618;25.336;2023-08-31T05:44:43;99951.53;;;22.93;nan
30463;BME280;17256;43.618;25.336;2023-08-31T05:47:09;99993.38;;;23.32;nan
30463;BME280;17256;43.618;25.336;2023-08-31T05:49:35;100039.19;;;23.41;nan
30463;BME280;17256;43.618;25.336;2023-08-31T05:52:01;99996.22;;;23.27;nan
30463;BME280;17256;43.618;25.336;2023-08-31T05:54:26;99997.03;;;23.27;nan
30463;BME280;17256;43.618;25.336;2023-08-31T05:56:52;99977.03;;;23.15;nan
30463;BME280;17256;43.618;25.336;2023-08-31T05:59:18;99953.56;;;23.11;nan
30463;BME280;17256;43.618;25.336;2023-08-31T06:01:43;100055.88;;;23.99;nan
30463;BME280;17256;43.618;25.336;2023-08-31T06:04:09;99982.28;;;23.88;nan
30463;BME280;17256;43.618;25.336;2023-08-31T06:06:35;100006.34;;;24.32;nan
30463;BME280;17256;43.618;25.336;2023-08-31T06:09:00;100036.09;;;24.47;nan
30463;BME280;17256;43.618;25.336;2023-08-31T06:11:26;100064.69;;;24.68;nan
30463;BME280;17256;43.618;25.336;2023-08-31T06:13:51;100069.06;;;24.74;nan
30463;BME280;17256;43.618;25.336;2023-08-31T06:16:17;100052.75;;;24.76;nan
30463;BME280;17256;43.618;25.336;2023-08-31T06:18:42;100029.69;;;24.79;nan
30463;BME280;17256;43.618;25.336;2023-08-31T06:21:08;100006.03;;;24.66;nan
30463;BME280;17256;43.618;25.336;2023-08-31T06:23:34;100057.91;;;24.88;nan
30463;BME280;17256;43.618;25.336;2023-08-31T06:26:00;100024.59;;;24.81;nan
30463;BME280;17256;43.618;25.336;2023-08-31T06:28:25;100051.25;;;24.97;nan
30463;BME280;17256;43.618;25.336;2023-08-31T06:30:51;100066.84;;;25.08;nan
30463;BME280;17256;43.618;25.336;2023-08-31T06:33:16;100071.63;;;25.22;nan
30463;BME280;17256;43.618;25.336;2023-08-31T06:35:45;100092.59;;;25.43;nan
30463;BME280;17256;43.618;25.336;2023-08-31T06:38:12;100069.06;;;25.39;nan
30463;BME280;17256;43.618;25.336;2023-08-31T06:40:37;100066.16;;;25.30;nan
30463;BME280;17256;43.618;25.336;2023-08-31T06:43:03;100104.19;;;25.55;nan
30463;BME280;17256;43.618;25.336;2023-08-31T06:45:29;100053.31;;;25.10;nan
30463;BME280;17256;43.618;25.336;2023-08-31T06:47:54;100098.78;;;25.12;nan
30463;BME280;17256;43.618;25.336;2023-08-31T06:50:20;100123.19;;;25.31;nan
30463;BME280;17256;43.618;25.336;2023-08-31T06:52:45;100109.13;;;25.31;nan
30463;BME280;17256;43.618;25.336;2023-08-31T06:55:12;100112.38;;;25.38;nan
30463;BME280;17256;43.618;25.336;2023-08-31T06:57:37;100136.09;;;25.45;nan
30463;BME280;17256;43.618;25.336;2023-08-31T07:00:03;100086.59;;;24.84;nan
30463;BME280;17256;43.618;25.336;2023-08-31T07:02:29;100167.38;;;25.58;nan
30463;BME280;17256;43.618;25.336;2023-08-31T07:08:08;100112.00;;;25.26;nan
30463;BME280;17256;43.618;25.336;2023-08-31T07:10:34;100079.22;;;25.07;nan
30463;BME280;17256;43.618;25.336;2023-08-31T07:13:02;100162.38;;;25.55;nan
30463;BME280;17256;43.618;25.336;2023-08-31T07:15:29;100182.38;;;25.53;nan
30463;BME280;17256;43.618;25.336;2023-08-31T07:17:54;100100.66;;;25.03;nan
30463;BME280;17256;43.618;25.336;2023-08-31T07:20:20;100129.03;;;25.34;nan
30463;BME280;17256;43.618;25.336;2023-08-31T07:22:46;100064.72;;;25.00;nan
30463;BME280;17256;43.618;25.336;2023-08-31T07:25:11;100129.97;;;25.30;nan
30463;BME280;17256;43.618;25.336;2023-08-31T07:27:37;100134.84;;;25.38;nan
30463;BME280;17256;43.618;25.336;2023-08-31T07:30:04;100216.19;;;25.94;nan
30463;BME280;17256;43.618;25.336;2023-08-31T07:32:30;100168.06;;;25.96;nan
30463;BME280;17256;43.618;25.336;2023-08-31T07:34:57;100083.00;;;25.44;nan
30463;BME280;17256;43.618;25.336;2023-08-31T07:37:22;100117.84;;;25.89;nan
30463;BME280;17256;43.618;25.336;2023-08-31T07:39:48;100094.09;;;25.68;nan
30463;BME280;17256;43.618;25.336;2023-08-31T07:42:13;100188.81;;;26.27;nan
30463;BME280;17256;43.618;25.336;2023-08-31T07:44:39;100158.38;;;25.88;nan
30463;BME280;17256;43.618;25.336;2023-08-31T07:47:06;100182.56;;;26.17;nan
30463;BME280;17256;43.618;25.336;2023-08-31T07:49:32;100171.28;;;26.17;nan
30463;BME280;17256;43.618;25.336;2023-08-31T07:51:58;100235.03;;;26.40;nan
30463;BME280;17256;43.618;25.336;2023-08-31T07:54:23;100200.50;;;26.07;nan
30463;BME280;17256;43.618;25.336;2023-08-31T07:56:49;100222.91;;;26.40;nan
30463;BME280;17256;43.618;25.336;2023-08-31T07:59:16;100198.72;;;26.39;nan
30463;BME280;17256;43.618;25.336;2023-08-31T08:01:42;100200.59;;;26.29;nan
30463;BME280;17256;43.618;25.336;2023-08-31T08:04:07;100183.50;;;26.12;nan
30463;BME280;17256;43.618;25.336;2023-08-31T08:06:33;100149.28;;;26.19;nan
30463;BME280;17256;43.618;25.336;2023-08-31T08:08:58;100076.56;;;25.98;nan
30463;BME280;17256;43.618;25.336;2023-08-31T08:14:46;100223.19;;;27.60;nan
30463;BME280;17256;43.618;25.336;2023-08-31T08:17:12;100188.84;;;27.80;nan
30463;BME280;17256;43.618;25.336;2023-08-31T08:19:37;100149.03;;;27.28;nan
30463;BME280;17256;43.618;25.336;2023-08-31T08:22:03;100161.09;;;26.84;nan
30463;BME280;17256;43.618;25.336;2023-08-31T08:24:29;100110.81;;;26.42;nan
30463;BME280;17256;43.618;25.336;2023-08-31T08:26:54;100151.81;;;26.34;nan
30463;BME280;17256;43.618;25.336;2023-08-31T08:29:20;100144.31;;;26.29;nan
30463;BME280;17256;43.618;25.336;2023-08-31T08:31:45;100158.06;;;26.45;nan
30463;BME280;17256;43.618;25.336;2023-08-31T08:34:11;100078.75;;;26.15;nan
30463;BME280;17256;43.618;25.336;2023-08-31T08:36:36;100147.69;;;27.04;nan
30463;BME280;17256;43.618;25.336;2023-08-31T08:39:02;100186.78;;;27.50;nan
30463;BME280;17256;43.618;25.336;2023-08-31T08:41:29;100220.66;;;28.03;nan
30463;BME280;17256;43.618;25.336;2023-08-31T08:43:57;100177.19;;;28.13;nan
30463;BME280;17256;43.618;25.336;2023-08-31T08:46:27;100196.09;;;28.52;nan
30463;BME280;17256;43.618;25.336;2023-08-31T08:48:53;100226.03;;;28.62;nan
30463;BME280;17256;43.618;25.336;2023-08-31T08:51:20;100196.03;;;28.35;nan
30463;BME280;17256;43.618;25.336;2023-08-31T08:53:46;100161.16;;;28.39;nan
30463;BME280;17256;43.618;25.336;2023-08-31T08:56:11;100188.19;;;28.89;nan
30463;BME280;17256;43.618;25.336;2023-08-31T08:58:37;100121.31;;;28.58;nan
30463;BME280;17256;43.618;25.336;2023-08-31T09:01:04;100197.34;;;29.29;nan
30463;BME280;17256;43.618;25.336;2023-08-31T09:03:32;100193.81;;;29.40;nan
30463;BME280;17256;43.618;25.336;2023-08-31T09:05:59;100152.91;;;29.29;nan
30463;BME280;17256;43.618;25.336;2023-08-31T09:08:27;100139.59;;;29.21;nan
30463;BME280;17256;43.618;25.336;2023-08-31T09:10:58;100208.81;;;29.50;nan
30463;BME280;17256;43.618;25.336;2023-08-31T09:13:27;100064.16;;;28.78;nan
30463;BME280;17256;43.618;25.336;2023-08-31T09:15:54;100220.00;;;30.01;nan
30463;BME280;17256;43.618;25.336;2023-08-31T09:18:28;100228.75;;;30.26;nan
30463;BME280;17256;43.618;25.336;2023-08-31T09:20:55;100224.75;;;30.27;nan
30463;BME280;17256;43.618;25.336;2023-08-31T09:23:22;100147.69;;;29.66;nan
30463;BME280;17256;43.618;25.336;2023-08-31T09:25:49;100208.66;;;30.10;nan
30463;BME280;17256;43.618;25.336;2023-08-31T09:28:16;100082.06;;;29.17;nan
30463;BME280;17256;43.618;25.336;2023-08-31T09:30:42;100069.63;;;29.09;nan
30463;BME280;17256;43.618;25.336;2023-08-31T09:33:09;100191.44;;;29.77;nan
30463;BME280;17256;43.618;25.336;2023-08-31T09:35:47;100159.88;;;29.58;nan
30463;BME280;17256;43.618;25.336;2023-08-31T09:38:14;100226.69;;;30.06;nan
30463;BME280;17256;43.618;25.336;2023-08-31T09:40:40;100133.22;;;29.59;nan
30463;BME280;17256;43.618;25.336;2023-08-31T09:43:06;100204.94;;;30.18;nan
30463;BME280;17256;43.618;25.336;2023-08-31T09:45:33;100234.63;;;30.50;nan
30463;BME280;17256;43.618;25.336;2023-08-31T09:47:59;100235.75;;;30.58;nan
30463;BME280;17256;43.618;25.336;2023-08-31T09:50:29;100223.41;;;30.63;nan
30463;BME280;17256;43.618;25.336;2023-08-31T09:52:55;100132.75;;;30.33;nan
30463;BME280;17256;43.618;25.336;2023-08-31T09:55:25;100225.25;;;30.88;nan
30463;BME280;17256;43.618;25.336;2023-08-31T09:57:56;100136.69;;;30.11;nan
30463;BME280;17256;43.618;25.336;2023-08-31T10:00:22;100138.25;;;29.91;nan
30463;BME280;17256;43.618;25.336;2023-08-31T10:02:48;100222.50;;;30.41;nan
30463;BME280;17256;43.618;25.336;2023-08-31T10:05:15;100217.06;;;30.86;nan
30463;BME280;17256;43.618;25.336;2023-08-31T10:07:41;100227.38;;;31.12;nan
30463;BME280;17256;43.618;25.336;2023-08-31T10:10:08;100160.03;;;30.88;nan
30463;BME280;17256;43.618;25.336;2023-08-31T10:12:35;100187.00;;;31.36;nan
30463;BME280;17256;43.618;25.336;2023-08-31T10:15:01;100220.34;;;31.39;nan
30463;BME280;17256;43.618;25.336;2023-08-31T10:17:28;100221.03;;;31.69;nan
30463;BME280;17256;43.618;25.336;2023-08-31T10:19:55;100182.09;;;31.57;nan
30463;BME280;17256;43.618;25.336;2023-08-31T10:22:21;100215.44;;;31.48;nan
30463;BME280;17256;43.618;25.336;2023-08-31T10:25:00;100189.22;;;31.09;nan
30463;BME280;17256;43.618;25.336;2023-08-31T10:27:27;100188.09;;;31.22;nan
30463;BME280;17256;43.618;25.336;2023-08-31T10:29:53;100184.59;;;31.05;nan
30463;BME280;17256;43.618;25.336;2023-08-31T10:32:19;100226.16;;;31.21;nan
30463;BME280;17256;43.618;25.336;2023-08-31T10:35:04;100229.78;;;31.31;nan
30463;BME280;17256;43.618;25.336;2023-08-31T10:37:30;100141.47;;;31.11;nan
30463;BME280;17256;43.618;25.336;2023-08-31T10:40:17;100219.28;;;31.43;nan
30463;BME280;17256;43.618;25.336;2023-08-31T10:42:47;100211.66;;;31.23;nan
30463;BME280;17256;43.618;25.336;2023-08-31T10:45:13;100207.97;;;31.22;nan
30463;BME280;17256;43.618;25.336;2023-08-31T10:47:42;100203.59;;;31.04;nan
30463;BME280;17256;43.618;25.336;2023-08-31T10:50:22;100220.34;;;31.39;nan
30463;BME280;17256;43.618;25.336;2023-08-31T10:52:48;100167.13;;;30.94;nan
30463;BME280;17256;43.618;25.336;2023-08-31T10:55:14;100221.97;;;31.28;nan
30463;BME280;17256;43.618;25.336;2023-08-31T10:57:41;100122.44;;;30.79;nan
30463;BME280;17256;43.618;25.336;2023-08-31T11:00:07;100204.09;;;31.60;nan
30463;BME280;17256;43.618;25.336;2023-08-31T11:07:29;100139.94;;;31.35;nan
30463;BME280;17256;43.618;25.336;2023-08-31T11:10:17;100219.94;;;31.61;nan
30463;BME280;17256;43.618;25.336;2023-08-31T11:12:48;100026.47;;;30.27;nan
30463;BME280;17256;43.618;25.336;2023-08-31T11:15:18;100226.72;;;31.36;nan
30463;BME280;17256;43.618;25.336;2023-08-31T11:17:45;100216.44;;;31.43;nan
30463;BME280;17256;43.618;25.336;2023-08-31T11:20:16;100217.72;;;31.67;nan
30463;BME280;17256;43.618;25.336;2023-08-31T11:22:43;100204.56;;;31.83;nan
30463;BME280;17256;43.618;25.336;2023-08-31T11:25:12;100174.16;;;31.50;nan
30463;BME280;17256;43.618;25.336;2023-08-31T11:27:38;100154.91;;;31.02;nan
30463;BME280;17256;43.618;25.336;2023-08-31T11:30:15;100154.09;;;31.02;nan
30463;BME280;17256;43.618;25.336;2023-08-31T11:32:47;100167.50;;;31.46;nan
30463;BME280;17256;43.618;25.336;2023-08-31T11:35:14;100187.13;;;31.39;nan
30463;BME280;17256;43.618;25.336;2023-08-31T11:38:02;100221.44;;;31.46;nan
30463;BME280;17256;43.618;25.336;2023-08-31T11:40:29;100179.31;;;31.36;nan
30463;BME280;17256;43.618;25.336;2023-08-31T11:42:55;100179.38;;;31.48;nan
30463;BME280;17256;43.618;25.336;2023-08-31T11:45:22;100175.28;;;31.37;nan
30463;BME280;17256;43.618;25.336;2023-08-31T11:47:49;100162.06;;;31.41;nan
30463;BME280;17256;43.618;25.336;2023-08-31T11:50:16;100150.78;;;31.66;nan
30463;BME280;17256;43.618;25.336;2023-08-31T11:52:42;100052.94;;;31.06;nan
30463;BME280;17256;43.618;25.336;2023-08-31T11:55:12;100208.03;;;32.01;nan
30463;BME280;17256;43.618;25.336;2023-08-31T11:57:38;100217.03;;;32.03;nan
30463;BME280;17256;43.618;25.336;2023-08-31T12:00:05;100199.94;;;31.91;nan
30463;BME280;17256;43.618;25.336;2023-08-31T12:02:37;100182.44;;;31.89;nan
30463;BME280;17256;43.618;25.336;2023-08-31T12:05:03;100097.53;;;31.50;nan
30463;BME280;17256;43.618;25.336;2023-08-31T12:07:30;100171.53;;;31.91;nan
30463;BME280;17256;43.618;25.336;2023-08-31T12:10:03;100065.84;;;31.03;nan
30463;BME280;17256;43.618;25.336;2023-08-31T12:12:29;100136.75;;;31.15;nan
30463;BME280;17256;43.618;25.336;2023-08-31T12:14:58;100120.66;;;31.28;nan
30463;BME280;17256;43.618;25.336;2023-08-31T12:17:26;100182.41;;;31.43;nan
30463;BME280;17256;43.618;25.336;2023-08-31T12:19:51;100111.75;;;31.17;nan
30463;BME280;17256;43.618;25.336;2023-08-31T12:22:17;100177.03;;;31.63;nan
30463;BME280;17256;43.618;25.336;2023-08-31T12:24:42;100216.97;;;31.78;nan
30463;BME280;17256;43.618;25.336;2023-08-31T12:27:09;100214.84;;;31.55;nan
30463;BME280;17256;43.618;25.336;2023-08-31T12:29:35;100185.81;;;31.37;nan
30463;BME280;17256;43.618;25.336;2023-08-31T12:32:01;100162.94;;;31.54;nan
30463;BME280;17256;43.618;25.336;2023-08-31T12:34:26;100157.00;;;31.80;nan
30463;BME280;17256;43.618;25.336;2023-08-31T12:36:52;100162.94;;;32.11;nan
30463;BME280;17256;43.618;25.336;2023-08-31T12:39:18;100186.59;;;32.03;nan
30463;BME280;17256;43.618;25.336;2023-08-31T12:41:43;100161.84;;;31.92;nan
30463;BME280;17256;43.618;25.336;2023-08-31T12:44:09;100187.03;;;31.81;nan
30463;BME280;17256;43.618;25.336;2023-08-31T12:46:35;100121.00;;;31.27;nan
30463;BME280;17256;43.618;25.336;2023-08-31T12:49:01;100203.72;;;31.82;nan
30463;BME280;17256;43.618;25.336;2023-08-31T12:51:29;100197.94;;;31.91;nan
30463;BME280;17256;43.618;25.336;2023-08-31T12:53:56;100143.38;;;31.40;nan
30463;BME280;17256;43.618;25.336;2023-08-31T12:56:22;100169.25;;;31.39;nan
30463;BME280;17256;43.618;25.336;2023-08-31T12:58:52;100156.34;;;31.08;nan
30463;BME280;17256;43.618;25.336;2023-08-31T13:01:20;100146.88;;;31.04;nan
30463;BME280;17256;43.618;25.336;2023-08-31T13:03:46;100171.38;;;31.30;nan
30463;BME280;17256;43.618;25.336;2023-08-31T13:06:13;100176.06;;;31.05;nan
30463;BME280;17256;43.618;25.336;2023-08-31T13:08:39;100081.84;;;30.66;nan
30463;BME280;17256;43.618;25.336;2023-08-31T13:11:05;100181.94;;;31.20;nan
30463;BME280;17256;43.618;25.336;2023-08-31T13:13:32;100200.47;;;31.39;nan
30463;BME280;17256;43.618;25.336;2023-08-31T13:16:00;100151.75;;;31.25;nan
30463;BME280;17256;43.618;25.336;2023-08-31T13:18:26;100115.69;;;31.04;nan
30463;BME280;17256;43.618;25.336;2023-08-31T13:20:55;100195.94;;;31.59;nan
30463;BME280;17256;43.618;25.336;2023-08-31T13:23:21;100142.78;;;31.35;nan
30463;BME280;17256;43.618;25.336;2023-08-31T13:25:47;100149.28;;;31.14;nan
30463;BME280;17256;43.618;25.336;2023-08-31T13:28:13;100163.22;;;31.28;nan
30463;BME280;17256;43.618;25.336;2023-08-31T13:30:39;100006.31;;;30.28;nan
30463;BME280;17256;43.618;25.336;2023-08-31T13:33:05;100148.09;;;31.15;nan
30463;BME280;17256;43.618;25.336;2023-08-31T13:35:32;100175.88;;;31.31;nan
30463;BME280;17256;43.618;25.336;2023-08-31T13:37:57;100084.97;;;31.06;nan
30463;BME280;17256;43.618;25.336;2023-08-31T13:40:23;100170.09;;;31.72;nan
30463;BME280;17256;43.618;25.336;2023-08-31T13:42:54;100125.75;;;31.35;nan